Time;durP1;ratioP1;P1;durP2;ratioP2;P2;SDS_P1;SDS_P2;PMS_P1;PMS_P2;Temp;Humidity;BMP_temperature;BMP_pressure;BME280_temperature;BME280_humidity;BME280_pressure;Samples;Min_cycle;Max_cycle;Signal;HPM_P1;HPM_P2
2023/12/19 00:00:32;;;;;;;3.40;3.10;;;;;;;5.18;100.00;100357.52;106248;1254;70468;-85
2023/12/19 00:02:59;;;;;;;3.40;3.00;;;;;;;5.12;100.00;100350.44;106388;1257;72543;-83
2023/12/19 00:05:26;;;;;;;3.00;2.60;;;;;;;5.14;100.00;100344.13;106095;1254;60906;-83
2023/12/19 00:07:53;;;;;;;3.20;2.90;;;;;;;5.17;100.00;100341.50;105994;1254;60140;-81
2023/12/19 00:10:19;;;;;;;3.60;3.10;;;;;;;5.10;100.00;100330.44;106328;1258;71527;-81
2023/12/19 00:12:47;;;;;;;2.60;2.40;;;;;;;5.03;100.00;100333.96;106292;1254;70238;-82
2023/12/19 00:15:14;;;;;;;3.70;2.70;;;;;;;5.04;100.00;100330.85;106175;1257;74009;-81
2023/12/19 00:17:42;;;;;;;3.60;3.00;;;;;;;5.08;100.00;100332.89;105732;1254;59649;-79
2023/12/19 00:20:10;;;;;;;3.50;3.10;;;;;;;5.03;100.00;100338.32;106401;1259;59759;-79
2023/12/19 00:22:37;;;;;;;3.60;3.00;;;;;;;5.01;100.00;100335.85;106106;1257;73140;-81
2023/12/19 00:25:04;;;;;;;3.60;3.30;;;;;;;5.05;100.00;100337.45;106274;1254;68953;-80
2023/12/19 00:27:31;;;;;;;4.20;3.20;;;;;;;5.03;100.00;100332.35;106297;1259;72541;-80
2023/12/19 00:29:58;;;;;;;4.50;3.10;;;;;;;4.97;100.00;100324.57;106175;1254;61607;-82
2023/12/19 00:32:24;;;;;;;3.10;2.60;;;;;;;5.04;100.00;100335.12;108278;1254;59611;-81
2023/12/19 00:34:51;;;;;;;4.60;3.50;;;;;;;5.07;100.00;100335.05;109399;1254;71731;-81
2023/12/19 00:37:18;;;;;;;3.50;3.20;;;;;;;5.04;100.00;100330.86;108503;1254;68941;-83
2023/12/19 00:39:45;;;;;;;3.30;2.90;;;;;;;5.00;100.00;100330.88;107918;1253;71181;-83
2023/12/19 00:42:12;;;;;;;3.70;2.70;;;;;;;5.06;100.00;100333.36;107860;1254;60401;-81
2023/12/19 00:44:38;;;;;;;3.30;3.00;;;;;;;5.13;100.00;100332.28;106809;1254;60028;-82
2023/12/19 00:47:05;;;;;;;3.30;2.90;;;;;;;5.12;100.00;100330.13;106630;1254;72011;-84
2023/12/19 00:49:32;;;;;;;3.70;3.30;;;;;;;5.06;100.00;100328.96;107527;1254;69705;-82
2023/12/19 00:52:00;;;;;;;3.20;2.50;;;;;;;5.07;100.00;100327.88;108950;1254;71289;-80
2023/12/19 00:54:28;;;;;;;3.40;3.10;;;;;;;5.08;100.00;100323.74;108882;1253;60179;-81
2023/12/19 00:56:55;;;;;;;3.60;3.10;;;;;;;5.05;100.00;100319.73;106597;1254;59573;-84
2023/12/19 00:59:22;;;;;;;3.90;2.60;;;;;;;5.01;100.00;100317.97;106387;1254;70664;-84
2023/12/19 01:01:49;;;;;;;3.60;2.90;;;;;;;5.03;100.00;100314.96;106019;1254;70414;-84
2023/12/19 01:04:19;;;;;;;3.70;2.80;;;;;;;5.06;100.00;100311.90;106284;1259;72899;-83
2023/12/19 01:06:46;;;;;;;4.50;3.40;;;;;;;5.05;100.00;100310.80;106426;1254;60247;-86
2023/12/19 01:09:13;;;;;;;3.10;2.80;;;;;;;5.00;100.00;100312.08;106288;1257;60105;-83
2023/12/19 01:11:41;;;;;;;3.30;2.90;;;;;;;5.03;100.00;100302.54;106288;1254;72968;-81
2023/12/19 01:14:08;;;;;;;4.50;3.50;;;;;;;5.06;100.00;100300.35;106272;1254;69335;-82
2023/12/19 01:16:35;;;;;;;3.60;2.80;;;;;;;5.02;100.00;100291.91;105911;1254;72663;-84
2023/12/19 01:19:03;;;;;;;2.90;2.60;;;;;;;5.01;100.00;100291.42;106087;1254;62251;-82
2023/12/19 01:21:30;;;;;;;3.10;2.50;;;;;;;5.05;100.00;100289.01;106495;1254;59799;-83
2023/12/19 01:23:56;;;;;;;3.40;3.00;;;;;;;5.02;100.00;100284.68;106649;1254;73145;-82
2023/12/19 01:26:23;;;;;;;2.80;2.40;;;;;;;4.96;100.00;100287.64;108087;1253;69081;-80
2023/12/19 01:31:29;;;;;;;3.50;3.10;;;;;;;5.04;100.00;100276.65;105217;1292;601731;-82
2023/12/19 01:33:57;;;;;;;3.20;2.90;;;;;;;4.97;100.00;100273.48;106922;1270;60163;-82
2023/12/19 01:36:25;;;;;;;3.20;2.80;;;;;;;4.93;100.00;100267.66;106734;1269;60866;-80
2023/12/19 01:38:54;;;;;;;2.90;2.50;;;;;;;5.00;100.00;100267.85;106181;1267;71141;-82
2023/12/19 01:41:24;;;;;;;4.90;3.30;;;;;;;5.05;100.00;100269.38;106118;1267;70354;-80
2023/12/19 01:43:57;;;;;;;4.20;3.80;;;;;;;5.01;100.00;100265.98;105646;1275;71374;-81
2023/12/19 01:46:26;;;;;;;;;;;;;;;4.93;100.00;100261.48;105902;1272;60844;-82
2023/12/19 01:48:54;;;;;;;5.20;3.60;;;;;;;4.96;100.00;100260.02;106181;1266;59343;-82
2023/12/19 01:51:22;;;;;;;4.60;3.30;;;;;;;5.00;100.00;100260.48;106301;1267;71213;-82
2023/12/19 01:53:49;;;;;;;4.00;3.30;;;;;;;4.93;100.00;100255.90;106819;1266;69983;-80
2023/12/19 01:56:18;;;;;;;3.60;3.00;;;;;;;4.89;100.00;100253.89;107587;1266;71425;-80
2023/12/19 01:58:46;;;;;;;4.10;3.50;;;;;;;4.91;100.00;100253.20;107828;1264;59623;-82
2023/12/19 02:01:15;;;;;;;3.80;3.40;;;;;;;4.89;100.00;100253.16;105732;1271;59593;-82
2023/12/19 02:03:43;;;;;;;4.40;3.20;;;;;;;4.86;100.00;100255.56;105258;1273;73004;-84
2023/12/19 02:06:11;;;;;;;4.30;3.70;;;;;;;4.89;100.00;100253.91;105351;1263;70501;-81
2023/12/19 02:08:38;;;;;;;4.50;4.10;;;;;;;4.93;100.00;100250.63;105140;1266;72960;-81
2023/12/19 02:11:06;;;;;;;5.70;4.00;;;;;;;4.87;100.00;100252.81;106162;1254;60458;-81
2023/12/19 02:13:33;;;;;;;5.70;4.10;;;;;;;4.81;100.00;100255.08;106536;1254;60113;-79
2023/12/19 02:16:01;;;;;;;5.40;4.20;;;;;;;4.80;100.00;100247.95;107721;1254;71846;-82
2023/12/19 02:18:29;;;;;;;5.70;4.50;;;;;;;4.79;100.00;100244.31;107056;1252;68745;-80
2023/12/19 02:20:56;;;;;;;5.50;5.00;;;;;;;4.73;100.00;100244.44;107932;1252;71504;-80
2023/12/19 02:23:24;;;;;;;4.80;4.20;;;;;;;4.72;100.00;100243.33;109387;1253;60964;-78
2023/12/19 02:25:51;;;;;;;5.20;4.70;;;;;;;4.77;100.00;100237.47;108725;1261;60864;-80
2023/12/19 02:28:19;;;;;;;5.50;4.90;;;;;;;4.75;100.00;100235.52;106894;1254;71818;-80
2023/12/19 02:30:47;;;;;;;6.10;4.80;;;;;;;4.72;100.00;100229.95;106828;1259;68456;-80
2023/12/19 02:33:14;;;;;;;5.70;4.70;;;;;;;4.74;100.00;100226.81;106147;1259;71635;-81
2023/12/19 02:35:42;;;;;;;4.30;3.90;;;;;;;4.73;100.00;100219.69;106059;1255;62200;-79
2023/12/19 02:38:09;;;;;;;5.70;4.10;;;;;;;4.70;100.00;100218.20;106016;1254;59548;-79
2023/12/19 02:40:37;;;;;;;4.20;3.80;;;;;;;4.63;100.00;100228.39;105963;1259;72852;-83
2023/12/19 02:43:04;;;;;;;5.00;4.00;;;;;;;4.64;100.00;100238.13;105991;1253;70619;-80
2023/12/19 02:45:34;;;;;;;3.60;3.10;;;;;;;4.67;100.00;100241.77;105860;1254;72770;-79
2023/12/19 02:48:02;;;;;;;4.40;3.80;;;;;;;4.64;100.00;100241.63;105767;1260;59615;-82
2023/12/19 02:50:30;;;;;;;6.50;5.20;;;;;;;4.63;100.00;100238.35;105936;1254;59650;-83
2023/12/19 02:52:57;;;;;;;5.00;4.00;;;;;;;4.70;100.00;100233.98;106254;1253;70868;-83
2023/12/19 02:55:25;;;;;;;4.50;3.80;;;;;;;4.70;100.00;100232.89;106540;1254;70312;-79
2023/12/19 02:57:53;;;;;;;3.60;3.30;;;;;;;4.64;100.00;100224.25;106344;1254;72794;-82
2023/12/19 03:00:20;;;;;;;3.80;3.20;;;;;;;4.67;100.00;100226.69;107546;1259;60447;-78
2023/12/19 03:02:48;;;;;;;3.80;3.40;;;;;;;4.67;100.00;100235.59;108326;1254;59700;-80
2023/12/19 03:05:16;;;;;;;3.60;2.90;;;;;;;4.64;100.00;100234.58;106316;1254;73378;-83
2023/12/19 03:07:44;;;;;;;3.20;2.90;;;;;;;4.70;100.00;100242.73;106117;1260;68919;-81
2023/12/19 03:10:11;;;;;;;3.40;3.10;;;;;;;4.75;100.00;100242.21;105910;1256;72708;-81
2023/12/19 03:12:39;;;;;;;3.40;3.10;;;;;;;4.73;100.00;100236.05;105667;1260;59720;-82
2023/12/19 03:15:07;;;;;;;4.30;3.90;;;;;;;4.69;100.00;100243.89;105811;1256;59637;-79
2023/12/19 03:17:35;;;;;;;3.10;2.80;;;;;;;4.71;100.00;100241.05;109282;1254;70809;-81
2023/12/19 03:20:02;;;;;;;3.60;2.80;;;;;;;4.78;100.00;100239.68;109102;1253;69310;-81
2023/12/19 03:22:30;;;;;;;5.50;3.50;;;;;;;4.77;100.00;100239.21;106987;1254;71168;-81
2023/12/19 03:24:57;;;;;;;3.60;3.30;;;;;;;4.75;100.00;100233.59;107132;1253;60369;-82
2023/12/19 03:27:25;;;;;;;3.60;2.70;;;;;;;4.80;100.00;100225.86;106849;1254;59690;-85
2023/12/19 03:29:53;;;;;;;4.10;3.70;;;;;;;4.81;100.00;100229.06;106116;1254;72370;-84
2023/12/19 03:32:21;;;;;;;4.40;4.00;;;;;;;4.77;100.00;100233.29;105949;1259;69480;-84
2023/12/19 03:34:48;;;;;;;4.00;3.50;;;;;;;4.72;100.00;100234.02;105764;1259;72716;-83
2023/12/19 03:37:16;;;;;;;4.10;3.40;;;;;;;4.76;100.00;100230.02;105799;1253;61720;-82
2023/12/19 03:39:44;;;;;;;3.80;3.20;;;;;;;4.79;100.00;100223.48;105875;1259;59591;-82
2023/12/19 03:42:12;;;;;;;4.40;3.50;;;;;;;4.73;100.00;100219.15;106179;1262;73643;-86
2023/12/19 03:44:41;;;;;;;5.90;4.40;;;;;;;4.68;100.00;100221.69;106406;1254;69054;-86
2023/12/19 03:47:13;;;;;;;5.70;4.40;;;;;;;4.68;100.00;100215.40;107743;1256;73901;-83
2023/12/19 03:49:41;;;;;;;4.10;3.70;;;;;;;4.67;100.00;100203.50;108587;1254;60517;-81
2023/12/19 03:52:09;;;;;;;4.60;3.70;;;;;;;4.64;100.00;100197.98;107591;1256;59609;-83
2023/12/19 03:54:37;;;;;;;4.00;3.60;;;;;;;4.60;100.00;100194.23;107894;1253;71737;-83
2023/12/19 03:57:05;;;;;;;4.00;3.50;;;;;;;4.63;100.00;100197.50;107941;1253;69558;-84
2023/12/19 03:59:33;;;;;;;3.80;3.40;;;;;;;4.64;100.00;100204.40;107694;1256;73316;-83
2023/12/19 04:02:01;;;;;;;4.60;3.90;;;;;;;4.66;100.00;100201.83;107774;1254;59633;-83
2023/12/19 04:04:29;;;;;;;20.30;13.80;;;;;;;4.61;100.00;100193.79;108838;1254;60034;-83
2023/12/19 04:06:58;;;;;;;4.60;3.70;;;;;;;4.61;100.00;100201.86;109008;1253;73789;-83
2023/12/19 04:09:26;;;;;;;4.80;4.30;;;;;;;4.65;100.00;100204.52;106804;1259;71328;-84
2023/12/19 04:11:53;;;;;;;4.90;4.40;;;;;;;4.61;100.00;100206.59;108391;1253;70900;-82
2023/12/19 04:14:23;;;;;;;4.90;4.40;;;;;;;4.62;100.00;100204.02;109124;1253;60873;-83
2023/12/19 04:16:52;;;;;;;5.00;4.50;;;;;;;4.66;100.00;100203.60;108422;1253;58835;-82
2023/12/19 04:19:21;;;;;;;4.60;3.90;;;;;;;4.62;100.00;100194.42;107014;1253;73098;-80
2023/12/19 04:21:49;;;;;;;5.30;4.40;;;;;;;4.64;100.00;100197.92;106130;1260;69074;-80
2023/12/19 04:24:20;;;;;;;7.20;6.00;;;;;;;4.66;100.00;100204.96;105822;1260;72793;-81
2023/12/19 04:26:49;;;;;;;18.60;12.90;;;;;;;4.62;100.00;100200.03;105986;1253;60103;-82
2023/12/19 04:29:17;;;;;;;10.60;7.70;;;;;;;4.58;100.00;100196.86;105838;1256;59972;-86
2023/12/19 04:31:44;;;;;;;7.80;5.60;;;;;;;4.61;100.00;100188.52;106616;1253;74840;-82
2023/12/19 04:34:12;;;;;;;6.80;5.70;;;;;;;4.66;100.00;100187.75;107027;1254;70154;-82
2023/12/19 04:36:40;;;;;;;7.20;5.60;;;;;;;4.63;100.00;100187.30;107322;1252;73673;-83
2023/12/19 04:39:08;;;;;;;6.90;5.20;;;;;;;4.58;100.00;100185.79;106774;1252;62098;-82
2023/12/19 04:41:37;;;;;;;6.50;5.40;;;;;;;4.60;100.00;100186.19;107526;1254;60587;-83
2023/12/19 04:44:05;;;;;;;5.80;4.50;;;;;;;4.64;100.00;100188.51;107560;1253;72149;-82
2023/12/19 04:46:33;;;;;;;5.70;5.00;;;;;;;4.60;100.00;100186.83;105890;1254;69953;-80
2023/12/19 04:49:01;;;;;;;5.70;4.50;;;;;;;4.55;100.00;100182.70;105972;1260;72470;-82
2023/12/19 04:51:28;;;;;;;6.10;5.10;;;;;;;4.57;100.00;100170.90;106217;1254;62012;-81
2023/12/19 04:53:56;;;;;;;5.00;4.30;;;;;;;4.59;100.00;100166.40;106137;1254;60087;-82
2023/12/19 04:56:24;;;;;;;6.80;5.40;;;;;;;4.59;100.00;100156.95;106076;1254;72080;-82
2023/12/19 04:58:51;;;;;;;5.60;5.10;;;;;;;4.56;100.00;100152.58;106045;1254;68742;-85
2023/12/19 05:01:19;;;;;;;6.70;4.50;;;;;;;4.49;100.00;100149.98;106528;1257;72885;-82
2023/12/19 05:03:47;;;;;;;5.50;4.70;;;;;;;4.51;100.00;100151.90;106394;1254;60421;-83
2023/12/19 05:06:18;;;;;;;8.30;5.90;;;;;;;4.53;100.00;100158.07;108556;1252;60958;-83
2023/12/19 05:08:46;;;;;;;7.70;5.40;;;;;;;4.48;100.00;100156.21;109298;1254;71596;-83
2023/12/19 05:11:14;;;;;;;8.40;6.30;;;;;;;4.48;100.00;100146.58;108982;1254;68922;-82
2023/12/19 05:13:41;;;;;;;7.40;6.50;;;;;;;4.50;100.00;100143.20;108443;1254;71223;-83
2023/12/19 05:16:13;;;;;;;7.90;6.60;;;;;;;4.51;100.00;100135.61;107666;1257;59743;-85
2023/12/19 05:18:42;;;;;;;10.50;7.20;;;;;;;4.48;100.00;100135.34;106856;1254;59762;-83
2023/12/19 05:21:10;;;;;;;9.60;7.90;;;;;;;4.47;100.00;100124.13;107249;1259;72821;-79
2023/12/19 05:23:39;;;;;;;8.90;8.00;;;;;;;4.49;100.00;100114.39;106348;1254;71115;-78
2023/12/19 05:26:07;;;;;;;9.60;8.10;;;;;;;4.48;100.00;100115.48;105867;1262;72719;-81
2023/12/19 05:28:35;;;;;;;9.60;8.10;;;;;;;4.45;100.00;100111.38;106420;1257;64102;-80
2023/12/19 05:31:03;;;;;;;9.10;7.90;;;;;;;4.46;100.00;100106.36;106207;1262;60218;-80
2023/12/19 05:33:32;;;;;;;9.80;8.10;;;;;;;4.46;100.00;100100.59;105878;1254;72173;-82
2023/12/19 05:36:00;;;;;;;12.10;9.60;;;;;;;4.39;100.00;100111.80;106220;1257;72576;-79
2023/12/19 05:38:30;;;;;;;9.00;7.80;;;;;;;4.39;100.00;100105.53;106833;1254;71851;-82
2023/12/19 05:40:58;;;;;;;10.00;7.90;;;;;;;4.40;100.00;100100.57;106367;1254;61670;-82
2023/12/19 05:43:26;;;;;;;11.20;8.10;;;;;;;4.41;100.00;100106.27;106773;1256;60280;-82
2023/12/19 05:45:53;;;;;;;12.10;8.70;;;;;;;4.41;100.00;100106.40;106314;1254;73860;-83
2023/12/19 05:48:22;;;;;;;10.30;8.10;;;;;;;4.41;100.00;100103.58;106044;1257;68959;-84
2023/12/19 05:50:51;;;;;;;9.80;8.10;;;;;;;4.42;100.00;100108.95;106671;1259;71796;-84
2023/12/19 05:53:19;;;;;;;9.30;7.90;;;;;;;4.43;100.00;100120.81;106724;1256;61022;-82
2023/12/19 05:55:47;;;;;;;9.60;8.60;;;;;;;4.40;100.00;100129.98;106323;1254;60667;-85
2023/12/19 05:58:15;;;;;;;10.10;9.00;;;;;;;4.43;100.00;100124.67;106183;1254;73874;-83
2023/12/19 06:00:48;;;;;;;13.20;10.00;;;;;;;4.45;100.00;100117.30;107171;1253;68772;-84
2023/12/19 06:03:20;;;;;;;12.40;9.40;;;;;;;4.45;100.00;100111.89;109131;1254;71118;-80
2023/12/19 06:05:48;;;;;;;15.00;10.30;;;;;;;4.45;100.00;100119.44;108947;1255;60944;-82
2023/12/19 06:08:17;;;;;;;11.10;9.10;;;;;;;4.44;100.00;100114.08;108593;1255;59884;-83
2023/12/19 06:10:46;;;;;;;14.10;10.20;;;;;;;4.48;100.00;100107.78;108653;1254;72608;-83
2023/12/19 06:13:14;;;;;;;13.90;9.20;;;;;;;4.47;100.00;100113.79;108374;1254;70180;-83
2023/12/19 06:15:42;;;;;;;10.60;9.30;;;;;;;4.48;100.00;100107.04;109070;1256;71662;-85
2023/12/19 06:18:10;;;;;;;10.30;8.90;;;;;;;4.54;100.00;100107.81;108935;1255;59635;-84
2023/12/19 06:20:39;;;;;;;11.60;9.50;;;;;;;4.54;100.00;100103.98;107642;1254;60365;-85
2023/12/19 06:23:07;;;;;;;11.90;9.30;;;;;;;4.55;100.00;100103.77;107189;1254;73005;-81
2023/12/19 06:25:35;;;;;;;12.90;9.70;;;;;;;4.56;100.00;100106.11;107216;1254;70078;-83
2023/12/19 06:28:03;;;;;;;12.70;10.20;;;;;;;4.59;100.00;100104.17;108321;1259;71430;-84
2023/12/19 06:30:31;;;;;;;10.10;8.60;;;;;;;4.58;100.00;100113.89;108981;1256;59040;-88
2023/12/19 06:33:05;;;;;;;13.50;10.10;;;;;;;4.54;100.00;100097.68;108716;1255;59160;-87
2023/12/19 06:35:40;;;;;;;10.90;8.70;;;;;;;4.58;100.00;100099.63;109127;1254;72650;-86
2023/12/19 06:38:08;;;;;;;10.50;8.50;;;;;;;4.61;100.00;100101.14;108669;1256;69053;-86
2023/12/19 06:40:37;;;;;;;10.40;9.20;;;;;;;4.61;100.00;100107.61;107846;1256;71431;-86
2023/12/19 06:43:10;;;;;;;11.80;9.30;;;;;;;4.61;100.00;100098.90;107020;1254;60474;-85
2023/12/19 06:45:38;;;;;;;12.20;10.30;;;;;;;4.56;100.00;100096.94;106826;1257;60347;-85
2023/12/19 06:48:07;;;;;;;13.10;10.20;;;;;;;4.56;100.00;100098.05;106865;1261;72616;-79
2023/12/19 06:50:34;;;;;;;12.10;10.00;;;;;;;4.55;100.00;100090.41;105695;1257;70005;-79
2023/12/19 06:53:02;;;;;;;13.70;10.60;;;;;;;4.53;100.00;100076.85;106066;1259;72732;-79
2023/12/19 06:55:30;;;;;;;14.10;10.50;;;;;;;4.53;100.00;100076.66;107149;1256;60407;-80
2023/12/19 06:57:58;;;;;;;12.70;10.40;;;;;;;4.49;100.00;100066.81;107665;1258;60352;-80
2023/12/19 07:00:28;;;;;;;14.00;10.40;;;;;;;4.49;100.00;100065.73;106748;1261;72628;-80
2023/12/19 07:02:55;;;;;;;15.90;12.20;;;;;;;4.54;100.00;100073.11;106162;1260;71020;-78
2023/12/19 07:05:23;;;;;;;15.20;12.40;;;;;;;4.56;100.00;100072.65;105825;1256;73328;-79
2023/12/19 07:07:51;;;;;;;14.20;12.20;;;;;;;4.55;100.00;100081.27;105757;1254;62799;-80
2023/12/19 07:10:19;;;;;;;15.50;12.20;;;;;;;4.52;100.00;100077.09;105800;1256;60544;-79
2023/12/19 07:12:47;;;;;;;14.10;11.10;;;;;;;4.52;100.00;100075.48;105715;1255;71818;-78
2023/12/19 07:15:14;;;;;;;13.50;11.60;;;;;;;4.51;100.00;100070.49;106080;1254;70040;-78
2023/12/19 07:17:43;;;;;;;15.70;12.20;;;;;;;4.49;100.00;100065.58;106360;1257;72783;-77
2023/12/19 07:20:11;;;;;;;15.90;11.90;;;;;;;4.50;100.00;100064.27;106923;1262;60440;-76
2023/12/19 07:22:40;;;;;;;14.00;11.80;;;;;;;4.50;100.00;100059.36;106696;1260;59890;-77
2023/12/19 07:25:08;;;;;;;15.70;12.50;;;;;;;4.51;100.00;100065.41;105841;1257;72554;-76
2023/12/19 07:27:37;;;;;;;14.70;11.90;;;;;;;4.54;100.00;100072.23;106235;1259;70351;-80
2023/12/19 07:30:08;;;;;;;18.00;13.40;;;;;;;4.54;100.00;100071.50;106330;1257;71651;-83
2023/12/19 07:32:35;;;;;;;16.70;12.20;;;;;;;4.50;100.00;100062.89;105578;1256;61824;-78
2023/12/19 07:35:05;;;;;;;15.70;13.40;;;;;;;4.51;100.00;100051.57;105666;1259;59271;-78
2023/12/19 07:37:32;;;;;;;16.40;12.80;;;;;;;4.52;100.00;100045.52;105590;1257;72657;-79
2023/12/19 07:40:05;;;;;;;19.20;14.80;;;;;;;4.54;100.00;100058.56;105543;1256;70284;-79
2023/12/19 07:42:33;;;;;;;21.00;14.50;;;;;;;4.57;100.00;100054.64;105884;1257;71479;-79
2023/12/19 07:45:02;;;;;;;22.40;16.20;;;;;;;4.56;100.00;100054.34;105636;1261;60422;-79
2023/12/19 07:47:30;;;;;;;21.40;16.80;;;;;;;4.55;100.00;100048.88;105864;1260;60290;-81
2023/12/19 07:49:58;;;;;;;20.80;16.00;;;;;;;4.55;100.00;100039.69;107881;1256;72627;-80
2023/12/19 07:52:31;;;;;;;20.10;16.50;;;;;;;4.56;100.00;100043.82;109307;1255;69519;-80
2023/12/19 07:55:14;;;;;;;19.30;14.80;;;;;;;4.59;100.00;100023.55;105354;1294;600043;-82
2023/12/19 07:57:42;;;;;;;19.70;15.10;;;;;;;4.57;100.00;100022.71;106039;1267;59349;-80
2023/12/19 08:00:14;;;;;;;21.00;15.20;;;;;;;4.52;100.00;100019.23;105846;1264;59276;-81
2023/12/19 08:02:42;;;;;;;21.70;16.00;;;;;;;4.52;100.00;100031.52;105456;1267;70953;-79
2023/12/19 08:05:12;;;;;;;21.90;15.90;;;;;;;4.51;100.00;100027.89;105636;1266;70368;-80
2023/12/19 08:07:40;;;;;;;22.40;14.20;;;;;;;4.49;100.00;100026.15;105451;1264;70498;-81
2023/12/19 08:10:08;;;;;;;22.40;14.80;;;;;;;4.48;100.00;100014.98;105535;1261;60300;-79
2023/12/19 08:12:35;;;;;;;23.70;15.60;;;;;;;4.48;100.00;100013.59;105751;1257;59444;-80
2023/12/19 08:15:03;;;;;;;23.00;16.70;;;;;;;4.51;100.00;99999.52;105655;1261;72397;-82
2023/12/19 08:17:31;;;;;;;22.50;14.70;;;;;;;4.53;100.00;99995.48;105844;1257;70780;-81
2023/12/19 08:19:58;;;;;;;23.20;17.10;;;;;;;4.55;100.00;99996.95;106959;1261;71900;-80
2023/12/19 08:22:26;;;;;;;19.80;16.10;;;;;;;4.57;100.00;99990.28;107169;1257;60412;-80
2023/12/19 08:24:54;;;;;;;18.50;13.50;;;;;;;4.58;100.00;99994.04;106325;1257;59961;-80
2023/12/19 08:27:26;;;;;;;20.00;14.90;;;;;;;4.60;100.00;99977.96;106991;1254;72999;-81
2023/12/19 08:29:55;;;;;;;19.00;14.50;;;;;;;4.60;100.00;99970.18;106477;1260;69969;-82
2023/12/19 08:32:23;;;;;;;22.50;16.10;;;;;;;4.61;100.00;99964.65;106313;1254;72845;-81
2023/12/19 08:34:50;;;;;;;19.60;13.50;;;;;;;4.61;100.00;99964.65;106636;1255;62089;-81
2023/12/19 08:37:19;;;;;;;19.80;15.20;;;;;;;4.61;100.00;99964.48;106400;1260;59572;-82
2023/12/19 08:39:51;;;;;;;18.90;14.60;;;;;;;4.65;100.00;99947.02;106235;1254;71465;-80
2023/12/19 08:42:19;;;;;;;21.30;14.80;;;;;;;4.67;100.00;99955.61;106144;1260;69888;-81
2023/12/19 08:44:46;;;;;;;19.30;14.60;;;;;;;4.67;100.00;99957.20;106506;1254;71607;-79
2023/12/19 08:47:14;;;;;;;18.80;14.60;;;;;;;4.68;100.00;99954.61;109395;1254;60388;-81
2023/12/19 08:49:44;;;;;;;21.00;16.30;;;;;;;4.66;100.00;99946.74;108817;1254;60899;-79
2023/12/19 08:52:12;;;;;;;19.20;15.30;;;;;;;4.68;100.00;99944.80;106382;1257;73057;-80
2023/12/19 08:54:40;;;;;;;21.10;14.50;;;;;;;4.70;100.00;99938.85;106136;1258;70751;-77
2023/12/19 08:57:08;;;;;;;23.00;15.60;;;;;;;4.70;100.00;99936.92;105672;1260;73065;-78
2023/12/19 08:59:36;;;;;;;19.50;14.90;;;;;;;4.69;100.00;99920.30;105909;1260;61232;-76
2023/12/19 09:02:05;;;;;;;15.40;13.20;;;;;;;4.70;100.00;99918.98;105833;1254;60915;-78
2023/12/19 09:04:33;;;;;;;22.60;15.70;;;;;;;4.73;100.00;99918.24;105811;1259;71651;-77
2023/12/19 09:07:01;;;;;;;28.50;17.60;;;;;;;4.73;100.00;99917.55;106173;1254;70312;-78
2023/12/19 09:09:29;;;;;;;25.10;15.90;;;;;;;4.76;100.00;99911.38;106408;1260;74643;-80
2023/12/19 09:11:57;;;;;;;22.00;15.00;;;;;;;4.76;100.00;99930.47;106353;1254;62629;-79
2023/12/19 09:14:26;;;;;;;23.90;17.10;;;;;;;4.78;100.00;99923.96;105805;1255;60021;-79
2023/12/19 09:16:54;;;;;;;21.00;16.00;;;;;;;4.79;100.00;99921.11;105810;1260;75106;-80
2023/12/19 09:19:22;;;;;;;18.30;15.20;;;;;;;4.78;100.00;99920.80;106387;1256;69028;-79
2023/12/19 09:21:50;;;;;;;23.70;15.90;;;;;;;4.78;100.00;99907.29;106251;1257;71296;-79
2023/12/19 09:24:18;;;;;;;18.40;14.90;;;;;;;4.83;100.00;99908.42;106082;1258;60460;-79
2023/12/19 09:26:48;;;;;;;20.90;15.60;;;;;;;4.84;100.00;99913.13;107102;1254;59471;-77
2023/12/19 09:29:17;;;;;;;19.70;15.20;;;;;;;4.87;100.00;99919.20;106687;1261;74379;-78
2023/12/19 09:31:47;;;;;;;18.60;15.20;;;;;;;4.87;100.00;99927.24;106130;1257;70523;-80
2023/12/19 09:34:14;;;;;;;20.60;15.80;;;;;;;4.89;100.00;99924.08;105824;1260;72649;-81
2023/12/19 09:36:42;;;;;;;20.90;14.80;;;;;;;4.89;100.00;99929.70;105834;1256;61670;-81
2023/12/19 09:39:23;;;;;;;21.40;15.50;;;;;;;4.90;100.00;99926.63;107046;1257;59645;-81
2023/12/19 09:41:52;;;;;;;20.40;16.00;;;;;;;4.85;100.00;99921.09;109166;1257;71885;-80
2023/12/19 09:44:19;;;;;;;21.60;17.00;;;;;;;4.86;100.00;99912.11;109227;1256;68601;-81
2023/12/19 09:46:53;;;;;;;23.00;16.60;;;;;;;4.86;100.00;99904.71;108908;1257;71565;-80
2023/12/19 09:49:22;;;;;;;23.10;16.80;;;;;;;4.87;100.00;99890.29;108737;1254;63256;-80
2023/12/19 09:51:55;;;;;;;24.80;18.80;;;;;;;4.88;100.00;99877.36;107399;1262;59570;-82
2023/12/19 09:54:24;;;;;;;23.80;18.70;;;;;;;4.89;100.00;99866.55;106972;1254;73771;-80
2023/12/19 09:56:56;;;;;;;22.30;16.20;;;;;;;4.89;100.00;99863.01;106304;1258;68708;-80
2023/12/19 09:59:24;;;;;;;24.60;19.70;;;;;;;4.92;100.00;99854.16;107517;1256;72857;-82
2023/12/19 10:01:53;;;;;;;26.00;18.70;;;;;;;4.92;100.00;99860.31;107133;1256;61733;-80
2023/12/19 10:04:20;;;;;;;21.20;17.00;;;;;;;4.88;100.00;99854.87;107594;1256;60163;-80
2023/12/19 10:07:01;;;;;;;20.70;16.40;;;;;;;4.83;100.00;99847.94;107806;1259;71863;-81
2023/12/19 10:09:29;;;;;;;22.70;16.80;;;;;;;4.82;100.00;99847.79;107846;1257;70779;-80
2023/12/19 10:12:04;;;;;;;20.00;16.50;;;;;;;4.81;100.00;99842.48;107471;1255;72242;-81
2023/12/19 10:14:34;;;;;;;19.80;17.00;;;;;;;4.79;100.00;99837.17;106714;1257;61688;-81
2023/12/19 10:17:06;;;;;;;20.00;16.10;;;;;;;4.77;100.00;99812.45;106964;1254;60501;-79
2023/12/19 10:19:34;;;;;;;19.60;15.90;;;;;;;4.77;100.00;99808.48;107502;1254;73979;-80
2023/12/19 10:22:10;;;;;;;18.40;14.60;;;;;;;4.79;100.00;99799.17;108824;1256;68820;-81
2023/12/19 10:24:38;;;;;;;17.60;14.30;;;;;;;4.81;100.00;99801.82;109080;1254;71372;-79
2023/12/19 10:27:06;;;;;;;24.30;18.70;;;;;;;4.82;100.00;99787.81;109132;1256;61333;-81
2023/12/19 10:29:38;;;;;;;22.00;17.80;;;;;;;4.85;100.00;99775.66;109398;1254;61033;-80
2023/12/19 10:32:17;;;;;;;21.90;17.90;;;;;;;4.84;100.00;99773.42;109417;1254;72608;-81
2023/12/19 10:34:49;;;;;;;22.20;17.40;;;;;;;4.87;100.00;99769.50;108968;1254;69094;-78
2023/12/19 10:37:20;;;;;;;23.10;18.90;;;;;;;4.92;100.00;99768.73;109196;1253;71513;-77
2023/12/19 10:39:52;;;;;;;24.30;17.60;;;;;;;4.98;100.00;99752.48;109277;1253;63096;-78
2023/12/19 10:42:20;;;;;;;23.90;19.10;;;;;;;5.01;100.00;99748.33;109130;1254;61022;-79
2023/12/19 10:44:48;;;;;;;22.10;17.90;;;;;;;5.04;100.00;99739.62;109195;1254;71960;-81
2023/12/19 10:47:16;;;;;;;23.00;17.70;;;;;;;5.06;100.00;99744.33;109320;1255;71007;-80
2023/12/19 10:49:44;;;;;;;27.50;19.80;;;;;;;5.08;100.00;99745.95;109163;1254;71419;-81
2023/12/19 10:52:14;;;;;;;28.60;20.60;;;;;;;5.08;100.00;99752.98;108992;1255;60482;-80
2023/12/19 10:54:42;;;;;;;30.00;20.10;;;;;;;5.06;100.00;99753.29;109065;1254;60803;-78
2023/12/19 10:57:17;;;;;;;25.30;20.40;;;;;;;5.08;100.00;99751.22;109116;1254;71801;-84
2023/12/19 10:59:55;;;;;;;26.30;19.90;;;;;;;5.10;100.00;99749.45;109275;1254;71554;-81
2023/12/19 11:02:36;;;;;;;25.80;20.20;;;;;;;5.09;100.00;99748.70;109445;1254;71473;-82
2023/12/19 11:05:12;;;;;;;22.30;18.40;;;;;;;5.10;100.00;99742.63;109290;1257;60766;-80
2023/12/19 11:07:52;;;;;;;27.70;20.80;;;;;;;5.11;100.00;99749.19;109142;1254;59992;-83
2023/12/19 11:10:23;;;;;;;26.60;19.30;;;;;;;5.12;100.00;99743.16;109123;1254;72809;-82
2023/12/19 11:12:51;;;;;;;24.80;18.10;;;;;;;5.14;100.00;99740.53;109364;1254;69077;-83
2023/12/19 11:15:18;;;;;;;32.30;21.10;;;;;;;5.19;100.00;99742.33;109295;1254;71069;-84
2023/12/19 11:17:58;;;;;;;30.10;19.30;;;;;;;5.20;100.00;99744.20;109254;1256;60465;-83
2023/12/19 11:20:30;;;;;;;31.20;20.20;;;;;;;5.23;100.00;99738.13;109301;1256;60980;-85